• Join FlightAware (Why Join?)
  • Login
  • US Flag 
04:13AM EDT


 

Airport Tracker/Info


-or-


 

Live Flight TrackerFlight Track Log ✈ RPA3865 ✈ 21-Jun-2013 ✈ KRAP - KDEN

Flight Track Log - Related Links

Times and Time Zones

All times are in EDT time to prevent confusion due to time zone crossing. See the RPA3865 flight status page for this flight to view local times or setup timezone preferences in your user account.

Time Position Orientation Groundspeed Altitude Reporting Facility
EDT Latitude Longitude Course Direction KTS MPH feet Rate Location/Type
07:43PM 44.0733 -103.1017 308° West 200 230 5,200  Level Denver Center
07:44PM 44.0544 -103.1600 246° West 210 242 7,600 2,160 Climbing Denver Center
07:45PM 43.9956 -103.1353 163° South 222 255 9,600 1,560 Climbing Denver Center
07:46PM 43.9375 -103.1053 160° South 219 252 11,000 1,260 Climbing Denver Center
07:47PM 43.8447 -103.0592 160° South 262 302 12,600 1,260 Climbing Denver Center
07:48PM 43.7553 -103.0233 164° South 290 334 13,900 1,140 Climbing Denver Center
07:49PM 43.6839 -103.0036 169° South 284 327 15,000 1,200 Climbing Denver Center
07:50PM 43.6033 -102.9714 164° South 272 313 16,400 1,320 Climbing Denver Center
07:51PM 43.5294 -102.9600 174° South 280 322 17,800 1,440 Climbing Denver Center
07:52PM 43.4456 -102.9592 180° South 273 314 19,400 1,500 Climbing Denver Center
07:53PM 43.3856 -102.9725 189° South 241 277 21,000 1,200 Climbing Denver Center
07:54PM 43.3256 -102.9878 190° South 228 262 22,000 1,140 Climbing Denver Center
07:55PM 43.2539 -103.0100 193° South 233 268 23,400 960 Climbing Denver Center
07:57PM 43.1906 -103.0311 194° South 242 278 24,000 240 Climbing Denver Center
07:58PM 43.1106 -103.0644 197° South 272 313 24,000  Level Denver Center
07:59PM 43.0342 -103.0911 194° South 289 333 24,000  Level Denver Center
08:00PM 42.9444 -103.1206 194° South 294 338 24,000  Level Denver Center
08:01PM 42.8686 -103.1475 195° South 297 342 24,000  Level Denver Center
08:02PM 42.7781 -103.1714 191° South 295 339 24,000  Level Denver Center
08:03PM 42.6989 -103.1842 187° South 299 344 24,000  Level Denver Center
08:04PM 42.6083 -103.2217 197° South 304 350 24,000  Level Denver Center
08:05PM 42.5158 -103.2547 195° South 307 353 24,000  Level Denver Center
08:06PM 42.4236 -103.2889 195° South 309 356 24,000  Level Denver Center
08:07PM 42.3433 -103.3169 194° South 310 357 24,000  Level Denver Center
08:08PM 42.2492 -103.3525 196° South 312 359 24,000  Level Denver Center
08:09PM 42.1686 -103.3806 194° South 312 359 24,000  Level Denver Center
08:10PM 42.0747 -103.4156 195° South 312 359 24,000  Level Denver Center
08:11PM 41.9958 -103.4442 195° South 308 354 24,000  Level Denver Center
08:12PM 41.9033 -103.4772 195° South 306 352 24,000  Level Denver Center
08:13PM 41.8511 -103.5475 225° Southwest 289 333 24,000  Level Denver Center
08:14PM 41.8167 -103.6650 249° West 300 345 24,000  Level Denver Center
08:15PM 41.7750 -103.7578 239° Southwest 305 351 24,000  Level Denver Center
08:16PM 41.7097 -103.8244 217° Southwest 307 353 24,000  Level Denver Center
08:17PM 41.6319 -103.9039 217° Southwest 315 362 24,000  Level Denver Center
08:18PM 41.5619 -103.9667 214° Southwest 317 365 24,000  Level Denver Center
08:19PM 41.4939 -104.0558 224° Southwest 307 353 24,000  Level Denver Center
08:20PM 41.4478 -104.1456 236° Southwest 306 352 24,000  Level Denver Center
08:22PM 41.3556 -104.1872 199° South 321 369 24,000 -780 Level Denver Center
08:23PM 41.2697 -104.1992 186° South 325 374 22,500 -2,100 Descending Denver Center
08:24PM 41.1731 -104.2375 197° South 324 373 19,700 -2,220 Descending Denver Center
08:25PM 41.0922 -104.2792 201° Southwest 324 373 18,000 -1,680 Descending Denver Center
08:26PM 40.9936 -104.3228 198° South 335 386 16,200 -1,500 Descending Denver Center
08:27PM 40.9153 -104.3631 201° Southwest 346 398 14,900 -1,320 Descending Denver Center
08:28PM 40.8114 -104.4111 199° South 334 384 13,500 -960 Descending Denver Center
08:29PM 40.7225 -104.4122 181° South 340 391 13,000 -540 Descending Denver Center
08:30PM 40.6233 -104.3964 173° South 335 386 12,500 -780 Descending Denver Center
08:31PM 40.5322 -104.3844 174° South 329 379 11,400 -780 Descending Denver Center
08:32PM 40.4347 -104.3728 175° South 326 375 11,000 -540 Descending Denver Center
08:33PM 40.3464 -104.3619 175° South 320 368 10,300 -960 Descending Denver Center
08:34PM 40.2614 -104.3550 176° South 280 322 9,100 -660 Descending Denver Center
08:35PM 40.1900 -104.3483 176° South 260 299 9,000 -60 Descending Denver Center
08:36PM 40.1156 -104.3439 177° South 267 307 9,000 -420 Level Denver Center
08:37PM 40.0358 -104.3428 179° South 265 305 8,200 -540 Descending Denver Center
08:38PM 39.9844 -104.3414 179° South 248 285 8,000 -480 Descending Denver Center
08:39PM 39.9181 -104.3883 208° Southwest 238 274 7,300 -540 Descending Denver Center
08:40PM 39.8822 -104.4544 235° Southwest 228 262 7,000 -300 Descending Denver Center
08:41PM 39.8739 -104.5297 262° West 215 247 6,800 -600 Descending Denver Center
08:42PM 39.8764 -104.5878 273° West 150 173 5,800 -720 Descending Denver Center
08:43PM 39.8775 -104.6378 272° West 140 161 5,400 -420 Descending Denver Center
08:45PM 39.8500 -104.6667 264° West  Level FlightAware Approximate
08:52PM 39.8617 -104.6732 264° West  Level Estimated
08:53PM 39.8617 -104.6732 264° West  Level Estimated
08:54PM 39.8617 -104.6732 264° West  Level Estimated